createdAt,value
2022-12-26T00:00:23.766Z,12.33
2022-12-26T00:02:25.460Z,12.32
2022-12-26T00:04:48.891Z,12.36
2022-12-26T00:06:52.215Z,12.37
2022-12-26T00:08:55.083Z,12.38
2022-12-26T00:10:56.674Z,12.40
2022-12-26T00:13:37.224Z,12.41
2022-12-26T00:15:20.047Z,12.41
2022-12-26T00:17:24.482Z,12.42
2022-12-26T00:19:27.415Z,12.44
2022-12-26T00:21:29.668Z,12.42
2022-12-26T00:23:33.123Z,12.43
2022-12-26T00:25:34.776Z,12.43
2022-12-26T00:27:36.468Z,12.43
2022-12-26T00:29:38.439Z,12.42
2022-12-26T00:31:40.088Z,12.44
2022-12-26T00:33:44.481Z,12.43
2022-12-26T00:35:46.246Z,12.43
2022-12-26T00:37:47.926Z,12.42
2022-12-26T00:39:49.612Z,12.41
2022-12-26T00:41:54.131Z,12.42
2022-12-26T00:43:56.284Z,12.41
2022-12-26T00:46:02.428Z,12.40
2022-12-26T00:48:04.144Z,12.39
2022-12-26T00:50:13.483Z,12.40
2022-12-26T00:52:16.684Z,12.38
2022-12-26T00:54:18.355Z,12.31
2022-12-26T00:56:19.977Z,12.32
2022-12-26T00:58:22.289Z,12.33
2022-12-26T01:00:24.185Z,12.34
2022-12-26T01:02:40.876Z,12.30
2022-12-26T01:04:45.345Z,12.28
2022-12-26T01:06:46.967Z,12.25
2022-12-26T01:08:49.034Z,12.22
2022-12-26T01:10:51.142Z,12.21
2022-12-26T01:12:52.820Z,12.20
2022-12-26T01:14:59.729Z,12.19
2022-12-26T01:17:01.391Z,12.21
2022-12-26T01:19:03.080Z,12.25
2022-12-26T01:21:13.595Z,12.22
2022-12-26T01:23:15.732Z,12.21
2022-12-26T01:25:17.483Z,12.21
2022-12-26T01:27:19.059Z,12.18
2022-12-26T01:29:22.905Z,12.17
2022-12-26T01:31:24.751Z,12.17
2022-12-26T01:33:26.279Z,12.16
2022-12-26T01:35:27.907Z,12.17
2022-12-26T01:37:29.843Z,12.15
2022-12-26T01:39:31.321Z,12.12
2022-12-26T01:41:33.268Z,12.09
2022-12-26T01:43:55.924Z,12.05
2022-12-26T01:45:58.258Z,12.06
2022-12-26T01:48:06.057Z,12.04
2022-12-26T01:50:18.150Z,12.03
2022-12-26T01:52:45.985Z,12.05
2022-12-26T01:54:53.342Z,12.08
2022-12-26T01:56:55.032Z,12.13
2022-12-26T01:59:06.286Z,12.05
2022-12-26T02:01:09.773Z,12.07
2022-12-26T02:03:30.966Z,12.07
2022-12-26T02:05:35.764Z,12.07
2022-12-26T02:07:41.247Z,12.12
2022-12-26T02:09:43.202Z,12.12
2022-12-26T02:12:33.730Z,12.14
2022-12-26T02:14:22.953Z,12.17
2022-12-26T02:16:25.736Z,12.18
2022-12-26T02:18:27.361Z,12.19
2022-12-26T02:20:38.791Z,12.19
2022-12-26T02:23:16.337Z,12.19
2022-12-26T02:25:48.195Z,12.17
2022-12-26T02:28:37.597Z,12.19
2022-12-26T02:30:56.340Z,12.21
2022-12-26T02:33:18.468Z,12.22
2022-12-26T02:35:27.896Z,12.23
2022-12-26T02:38:00.475Z,12.25
2022-12-26T02:40:28.230Z,12.27
2022-12-26T02:42:44.401Z,12.29
2022-12-26T02:45:12.866Z,12.29
2022-12-26T02:47:44.680Z,12.29
2022-12-26T02:50:42.897Z,12.29
2022-12-26T02:53:23.818Z,12.29
2022-12-26T02:55:47.935Z,12.33
2022-12-26T02:58:17.775Z,12.33
2022-12-26T03:00:40.302Z,12.33
2022-12-26T03:03:08.131Z,12.33
2022-12-26T03:05:38.462Z,12.35
2022-12-26T03:08:15.507Z,12.38
2022-12-26T03:10:43.689Z,12.38
2022-12-26T03:13:12.094Z,12.41
2022-12-26T03:15:17.271Z,12.43
2022-12-26T03:17:33.775Z,12.44
2022-12-26T03:19:58.382Z,12.49
2022-12-26T03:22:02.143Z,12.51
2022-12-26T03:24:04.745Z,12.53
2022-12-26T03:26:31.175Z,12.56
2022-12-26T03:28:33.261Z,12.59
2022-12-26T03:30:50.698Z,12.59
2022-12-26T03:32:54.833Z,12.61
2022-12-26T03:34:56.406Z,12.62
2022-12-26T03:37:47.688Z,12.62
2022-12-26T03:40:46.837Z,12.63
2022-12-26T03:43:20.283Z,12.63
2022-12-26T03:46:01.414Z,12.68
2022-12-26T03:48:36.873Z,12.69
2022-12-26T03:51:03.205Z,12.69
2022-12-26T03:53:38.677Z,12.71
2022-12-26T03:56:05.363Z,12.76
2022-12-26T03:58:42.766Z,12.79
2022-12-26T04:01:07.211Z,12.79
2022-12-26T04:03:31.696Z,12.81
2022-12-26T04:05:56.674Z,12.81
2022-12-26T04:08:26.478Z,12.85
2022-12-26T04:10:54.605Z,12.84
2022-12-26T04:13:19.468Z,12.85
2022-12-26T04:16:03.846Z,12.86
2022-12-26T04:18:33.793Z,12.84
2022-12-26T04:20:46.653Z,12.85
2022-12-26T04:23:16.593Z,12.85
2022-12-26T04:25:51.762Z,12.86
2022-12-26T04:28:12.100Z,12.90
2022-12-26T04:30:32.958Z,12.93
2022-12-26T04:33:02.519Z,12.97
2022-12-26T04:35:30.925Z,12.99
2022-12-26T04:37:53.463Z,13.00
2022-12-26T04:40:15.539Z,13.00
2022-12-26T04:42:38.424Z,13.01
2022-12-26T04:44:40.919Z,13.05
2022-12-26T04:46:46.188Z,13.09
2022-12-26T04:49:12.341Z,13.09
2022-12-26T04:51:13.876Z,13.09
2022-12-26T04:53:15.637Z,13.07
2022-12-26T04:55:18.088Z,13.07
2022-12-26T04:57:19.817Z,13.07
2022-12-26T04:59:27.376Z,13.06
2022-12-26T05:01:47.731Z,13.06
2022-12-26T05:04:08.285Z,13.05
2022-12-26T05:06:28.507Z,13.04
2022-12-26T05:08:57.887Z,13.02
2022-12-26T05:11:00.947Z,13.02
2022-12-26T05:13:02.441Z,13.04
2022-12-26T05:15:04.578Z,13.03
2022-12-26T05:17:26.270Z,13.04
2022-12-26T05:19:46.629Z,13.03
2022-12-26T05:22:07.164Z,13.02
2022-12-26T05:24:30.618Z,13.01
2022-12-26T05:26:52.126Z,13.00
2022-12-26T05:29:00.445Z,12.99
2022-12-26T05:31:03.352Z,13.00
2022-12-26T05:33:23.872Z,13.00
2022-12-26T05:35:26.496Z,13.01
2022-12-26T05:37:32.354Z,13.05
2022-12-26T05:39:33.929Z,13.04
2022-12-26T05:41:36.962Z,13.06
2022-12-26T05:43:39.132Z,13.05
2022-12-26T05:45:40.843Z,13.05
2022-12-26T05:47:47.010Z,13.05
2022-12-26T05:49:51.776Z,13.07
2022-12-26T05:51:53.909Z,13.08
2022-12-26T05:53:55.436Z,13.07
2022-12-26T05:56:04.726Z,13.06
2022-12-26T05:58:06.484Z,13.10
2022-12-26T06:00:08.671Z,13.12
2022-12-26T06:02:10.617Z,13.13
2022-12-26T06:04:12.253Z,13.14
2022-12-26T06:06:14.333Z,13.16
2022-12-26T06:08:15.903Z,13.17
2022-12-26T06:10:21.313Z,13.18
2022-12-26T06:12:23.068Z,13.21
2022-12-26T06:14:24.881Z,13.23
2022-12-26T06:16:26.608Z,13.24
2022-12-26T06:18:28.462Z,13.25
2022-12-26T06:20:30.029Z,13.27
2022-12-26T06:22:34.927Z,13.30
2022-12-26T06:24:38.087Z,13.33
2022-12-26T06:26:40.895Z,13.35
2022-12-26T06:28:44.012Z,13.36
2022-12-26T06:30:46.442Z,13.39
2022-12-26T06:32:54.533Z,13.45
2022-12-26T06:34:56.260Z,13.50
2022-12-26T06:36:57.956Z,13.53
2022-12-26T06:39:01.035Z,13.56
2022-12-26T06:41:06.410Z,13.55
2022-12-26T06:43:09.239Z,13.62
2022-12-26T06:45:11.214Z,13.61
2022-12-26T06:47:12.997Z,13.63
2022-12-26T06:49:14.845Z,13.61
2022-12-26T06:51:22.628Z,13.60
2022-12-26T06:53:25.320Z,13.59
2022-12-26T06:55:26.855Z,13.55
2022-12-26T06:57:28.405Z,13.55
2022-12-26T06:59:30.232Z,13.58
2022-12-26T07:01:34.648Z,13.59
2022-12-26T07:03:36.374Z,13.59
2022-12-26T07:05:39.094Z,13.58
2022-12-26T07:07:40.844Z,13.61
2022-12-26T07:09:43.109Z,13.62
2022-12-26T07:11:50.035Z,13.63
2022-12-26T07:13:52.362Z,13.66
2022-12-26T07:15:59.874Z,13.66
2022-12-26T07:18:01.494Z,13.69
2022-12-26T07:20:04.718Z,13.70
2022-12-26T07:22:06.377Z,13.69
2022-12-26T07:24:17.695Z,13.70
2022-12-26T07:26:19.629Z,13.72
2022-12-26T07:28:21.198Z,13.73
2022-12-26T07:30:22.706Z,13.72
2022-12-26T07:32:24.422Z,13.74
2022-12-26T07:34:31.355Z,13.77
2022-12-26T07:36:34.937Z,13.78
2022-12-26T07:38:36.879Z,13.81
2022-12-26T07:40:38.468Z,13.85
2022-12-26T07:42:40.248Z,13.89
2022-12-26T07:44:42.929Z,13.92
2022-12-26T07:46:46.547Z,13.92
2022-12-26T07:48:48.161Z,13.96
2022-12-26T07:50:51.459Z,14.01
2022-12-26T07:52:53.286Z,14.00
2022-12-26T07:54:54.852Z,13.99
2022-12-26T07:57:29.629Z,14.01
2022-12-26T07:59:23.513Z,14.00
2022-12-26T08:01:25.249Z,14.00
2022-12-26T08:03:32.591Z,14.00
2022-12-26T08:05:37.166Z,14.00
2022-12-26T08:07:39.062Z,14.00
2022-12-26T08:09:42.995Z,14.02
2022-12-26T08:11:45.538Z,14.02
2022-12-26T08:13:50.974Z,14.04
2022-12-26T08:15:52.557Z,14.05
2022-12-26T08:17:55.061Z,14.06
2022-12-26T08:19:56.755Z,14.07
2022-12-26T08:21:58.459Z,14.06
2022-12-26T08:24:00.282Z,14.09
2022-12-26T08:26:11.170Z,14.11
2022-12-26T08:28:16.901Z,14.18
2022-12-26T08:30:18.540Z,14.23
2022-12-26T08:32:20.860Z,14.25
2022-12-26T08:34:22.461Z,14.22
2022-12-26T08:36:24.207Z,14.22
2022-12-26T08:38:29.919Z,14.20
2022-12-26T08:40:44.297Z,14.16
2022-12-26T08:43:11.731Z,14.17
2022-12-26T08:45:07.983Z,14.18
2022-12-26T08:47:09.568Z,14.17
2022-12-26T08:49:11.490Z,14.18
2022-12-26T08:51:16.095Z,14.18
2022-12-26T08:53:17.758Z,14.21
2022-12-26T08:55:19.296Z,14.22
2022-12-26T08:57:21.114Z,14.22
2022-12-26T08:59:24.209Z,14.24
2022-12-26T09:01:28.252Z,14.25
2022-12-26T09:03:29.879Z,14.26
2022-12-26T09:05:32.329Z,14.28
2022-12-26T09:07:33.829Z,14.28
2022-12-26T09:09:35.637Z,14.30
2022-12-26T09:11:38.625Z,14.31
2022-12-26T09:13:42.739Z,14.33
2022-12-26T09:15:44.424Z,14.35
2022-12-26T09:17:46.099Z,14.37
2022-12-26T09:19:47.932Z,14.38
2022-12-26T09:22:10.400Z,14.41
2022-12-26T09:24:14.773Z,14.43
2022-12-26T09:26:19.518Z,14.43
2022-12-26T09:28:21.323Z,14.42
2022-12-26T09:30:23.251Z,14.44
2022-12-26T09:32:25.045Z,14.45
2022-12-26T09:34:26.699Z,14.45
2022-12-26T09:36:32.532Z,14.45
2022-12-26T09:38:36.379Z,14.45
2022-12-26T09:41:03.849Z,14.46
2022-12-26T09:43:23.125Z,14.45
2022-12-26T09:45:43.548Z,14.49
2022-12-26T09:48:02.304Z,14.48
2022-12-26T09:50:26.087Z,14.49
2022-12-26T09:52:53.928Z,14.49
2022-12-26T09:55:04.904Z,14.50
2022-12-26T09:57:15.052Z,14.54
2022-12-26T09:59:20.219Z,14.53
2022-12-26T10:01:26.352Z,14.54
2022-12-26T10:03:28.474Z,14.56
2022-12-26T10:05:40.572Z,14.55
2022-12-26T10:07:59.442Z,14.55
2022-12-26T10:10:27.096Z,14.53
2022-12-26T10:12:39.077Z,14.54
2022-12-26T10:14:45.317Z,14.54
2022-12-26T10:17:00.879Z,14.55
2022-12-26T10:19:13.836Z,14.56
2022-12-26T10:21:29.230Z,14.56
2022-12-26T10:23:43.562Z,14.56
2022-12-26T10:25:57.187Z,14.55
2022-12-26T10:28:00.273Z,14.56
2022-12-26T10:30:07.380Z,14.55
2022-12-26T10:32:16.928Z,14.55
2022-12-26T10:34:29.262Z,14.55
2022-12-26T10:36:40.618Z,14.54
2022-12-26T10:38:47.897Z,14.53
2022-12-26T10:40:53.365Z,14.54
2022-12-26T10:42:58.348Z,14.53
2022-12-26T10:45:00.674Z,14.54
2022-12-26T10:47:08.810Z,14.53
2022-12-26T10:49:12.392Z,14.55
2022-12-26T10:51:16.019Z,14.56
2022-12-26T10:53:17.794Z,14.57
2022-12-26T10:55:28.144Z,14.56
2022-12-26T10:57:35.741Z,14.56
2022-12-26T10:59:40.442Z,14.57
2022-12-26T11:01:50.428Z,14.57
2022-12-26T11:04:53.100Z,14.55
2022-12-26T11:06:54.928Z,14.54
2022-12-26T11:08:57.319Z,14.56
2022-12-26T11:11:08.494Z,14.55
2022-12-26T11:13:20.612Z,14.54
2022-12-26T11:15:41.305Z,14.52
2022-12-26T11:17:45.578Z,14.55
2022-12-26T11:19:47.161Z,14.55
2022-12-26T11:22:15.553Z,14.53
2022-12-26T11:24:19.989Z,14.55
2022-12-26T11:26:27.497Z,14.55
2022-12-26T11:28:33.113Z,14.57
2022-12-26T11:30:40.072Z,14.58
2022-12-26T11:32:44.122Z,14.59
2022-12-26T11:34:49.400Z,14.56
2022-12-26T11:36:53.966Z,14.58
2022-12-26T11:39:07.931Z,14.60
2022-12-26T11:41:32.759Z,14.58
2022-12-26T11:43:34.366Z,14.60
2022-12-26T11:45:43.497Z,14.58
2022-12-26T11:47:46.238Z,14.59
2022-12-26T11:49:58.748Z,14.57
2022-12-26T11:52:41.923Z,14.54
2022-12-26T11:54:51.336Z,14.53
2022-12-26T11:57:02.394Z,14.53
2022-12-26T11:59:18.724Z,14.50
2022-12-26T12:01:20.733Z,14.52
2022-12-26T12:03:46.940Z,14.51
2022-12-26T12:05:55.120Z,14.50
2022-12-26T12:08:27.974Z,14.47
2022-12-26T12:10:43.142Z,14.47
2022-12-26T12:13:29.376Z,14.44
2022-12-26T12:15:56.895Z,14.46
2022-12-26T12:18:21.378Z,14.49
2022-12-26T12:20:52.153Z,14.49
2022-12-26T12:23:36.193Z,14.48
2022-12-26T12:25:56.451Z,14.48
2022-12-26T12:28:08.317Z,14.49
2022-12-26T12:30:40.234Z,14.48
2022-12-26T12:32:53.516Z,14.50
2022-12-26T12:35:16.918Z,14.49
2022-12-26T12:37:34.115Z,14.52
2022-12-26T12:40:00.146Z,14.51
2022-12-26T12:42:23.715Z,14.53
2022-12-26T12:44:55.585Z,14.51
2022-12-26T12:47:16.644Z,14.53
2022-12-26T12:49:46.289Z,14.52
2022-12-26T12:52:18.070Z,14.53
2022-12-26T12:54:38.535Z,14.53
2022-12-26T12:57:02.111Z,14.52
2022-12-26T12:59:34.782Z,14.53
2022-12-26T13:01:42.805Z,14.55
2022-12-26T13:03:50.568Z,14.54
2022-12-26T13:06:00.915Z,14.53
2022-12-26T13:08:11.549Z,14.55
2022-12-26T13:10:34.607Z,14.53
2022-12-26T13:12:39.864Z,14.55
2022-12-26T13:14:47.697Z,14.54
2022-12-26T13:16:58.408Z,14.55
2022-12-26T13:19:05.095Z,14.58
2022-12-26T13:21:10.852Z,14.55
2022-12-26T13:23:46.588Z,14.55
2022-12-26T13:26:08.544Z,14.55
2022-12-26T13:28:17.947Z,14.56
2022-12-26T13:30:19.598Z,14.57
2022-12-26T13:32:27.319Z,14.55
2022-12-26T13:34:28.993Z,14.56
2022-12-26T13:36:40.141Z,14.57
2022-12-26T13:38:56.591Z,14.58
2022-12-26T13:41:21.039Z,14.58
2022-12-26T13:43:44.415Z,14.58
2022-12-26T13:45:54.208Z,14.59
2022-12-26T13:47:56.220Z,14.60
2022-12-26T13:49:58.232Z,14.60
2022-12-26T13:52:34.943Z,14.56
2022-12-26T13:54:58.345Z,14.59
2022-12-26T13:57:16.431Z,14.57
2022-12-26T13:59:35.950Z,14.57
2022-12-26T14:02:07.013Z,14.55
2022-12-26T14:04:28.161Z,14.56
2022-12-26T14:06:58.841Z,14.55
2022-12-26T14:09:28.000Z,14.53
2022-12-26T14:11:54.605Z,14.52
2022-12-26T14:14:24.953Z,14.52
2022-12-26T14:16:37.908Z,14.52
2022-12-26T14:19:21.308Z,14.48
2022-12-26T14:22:00.582Z,14.48
2022-12-26T14:24:31.866Z,14.47
2022-12-26T14:26:39.921Z,14.47
2022-12-26T14:28:51.471Z,14.45
2022-12-26T14:31:08.898Z,14.45
2022-12-26T14:33:53.208Z,14.44
2022-12-26T14:36:16.252Z,14.43
2022-12-26T14:38:36.362Z,14.43
2022-12-26T14:40:57.682Z,14.40
2022-12-26T14:43:11.432Z,14.40
2022-12-26T14:45:28.347Z,14.40
2022-12-26T14:47:49.694Z,14.39
2022-12-26T14:49:51.347Z,14.40
2022-12-26T14:51:52.970Z,14.38
2022-12-26T14:54:16.900Z,14.36
2022-12-26T14:56:18.451Z,14.37
2022-12-26T14:58:36.158Z,14.37
2022-12-26T15:00:38.631Z,14.36
2022-12-26T15:02:44.764Z,14.36
2022-12-26T15:05:01.268Z,14.33
2022-12-26T15:07:35.699Z,14.30
2022-12-26T15:10:14.229Z,14.32
2022-12-26T15:12:56.708Z,14.29
2022-12-26T15:15:25.203Z,14.27
2022-12-26T15:18:00.663Z,14.26
2022-12-26T15:20:20.831Z,14.24
2022-12-26T15:22:42.717Z,14.23
2022-12-26T15:25:22.574Z,14.22
2022-12-26T15:27:27.346Z,14.20
2022-12-26T15:29:45.088Z,14.20
2022-12-26T15:31:52.128Z,14.21
2022-12-26T15:34:05.662Z,14.19
2022-12-26T15:36:34.989Z,14.20
2022-12-26T15:38:43.498Z,14.20
2022-12-26T15:40:58.690Z,14.21
2022-12-26T15:43:40.541Z,14.18
2022-12-26T15:46:05.279Z,14.17
2022-12-26T15:48:22.924Z,14.17
2022-12-26T15:50:50.816Z,14.17
2022-12-26T15:53:22.723Z,14.14
2022-12-26T15:55:27.297Z,14.15
2022-12-26T15:57:40.882Z,14.16
2022-12-26T15:59:59.045Z,14.15
2022-12-26T16:02:01.182Z,14.17
2022-12-26T16:04:07.649Z,14.13
2022-12-26T16:06:31.902Z,14.12
2022-12-26T16:08:47.180Z,14.08
2022-12-26T16:10:55.623Z,14.09
2022-12-26T16:13:22.749Z,14.07
2022-12-26T16:15:25.129Z,14.09
2022-12-26T16:17:27.937Z,14.07
2022-12-26T16:19:29.420Z,14.04
2022-12-26T16:21:49.538Z,14.04
2022-12-26T16:23:54.002Z,14.05
2022-12-26T16:25:57.233Z,14.03
2022-12-26T16:28:00.179Z,14.05
2022-12-26T16:30:11.717Z,14.06
2022-12-26T16:32:18.158Z,14.05
2022-12-26T16:34:20.981Z,14.05
2022-12-26T16:36:28.094Z,14.03
2022-12-26T16:38:31.513Z,14.04
2022-12-26T16:40:41.266Z,14.04
2022-12-26T16:42:45.431Z,14.02
2022-12-26T16:44:47.103Z,14.03
2022-12-26T16:46:48.810Z,14.01
2022-12-26T16:48:57.035Z,13.99
2022-12-26T16:51:03.376Z,13.99
2022-12-26T16:53:15.294Z,13.99
2022-12-26T16:55:42.549Z,13.96
2022-12-26T16:57:44.090Z,13.93
2022-12-26T16:59:58.279Z,13.93
2022-12-26T17:02:00.642Z,13.94
2022-12-26T17:04:16.992Z,13.93
2022-12-26T17:06:31.843Z,13.90
2022-12-26T17:08:33.517Z,13.91
2022-12-26T17:10:37.595Z,13.89
2022-12-26T17:12:39.747Z,13.88
2022-12-26T17:14:46.109Z,13.86
2022-12-26T17:16:56.024Z,13.85
2022-12-26T17:19:19.495Z,13.82
2022-12-26T17:21:28.292Z,13.80
2022-12-26T17:23:36.336Z,13.79
2022-12-26T17:25:38.122Z,13.79
2022-12-26T17:27:39.952Z,13.79
2022-12-26T17:30:00.711Z,13.77
2022-12-26T17:32:08.516Z,13.75
2022-12-26T17:34:23.970Z,13.77
2022-12-26T17:37:08.759Z,13.77
2022-12-26T17:38:52.552Z,13.78
2022-12-26T17:40:56.867Z,13.75
2022-12-26T17:43:29.391Z,13.75
2022-12-26T17:45:31.138Z,13.76
2022-12-26T17:47:32.628Z,13.72
2022-12-26T17:49:34.255Z,13.74
2022-12-26T17:51:35.785Z,13.73
2022-12-26T17:53:40.295Z,13.74
2022-12-26T17:55:42.169Z,13.75
2022-12-26T17:57:43.820Z,13.75
2022-12-26T17:59:45.435Z,13.72
2022-12-26T18:01:47.177Z,13.73
2022-12-26T18:03:49.588Z,13.75
2022-12-26T18:05:52.799Z,13.73
2022-12-26T18:07:55.091Z,13.75
2022-12-26T18:09:56.708Z,13.73
2022-12-26T18:11:58.277Z,13.72
2022-12-26T18:13:59.826Z,13.73
2022-12-26T18:16:02.404Z,13.72
2022-12-26T18:18:04.650Z,13.73
2022-12-26T18:20:06.923Z,13.74
2022-12-26T18:22:14.798Z,13.74
2022-12-26T18:24:16.288Z,13.75
2022-12-26T18:26:26.569Z,13.73
2022-12-26T18:28:29.092Z,13.74
2022-12-26T18:30:30.704Z,13.73
2022-12-26T18:32:33.669Z,13.73
2022-12-26T18:34:35.219Z,13.73
2022-12-26T18:36:42.179Z,13.69
2022-12-26T18:38:44.115Z,13.71
2022-12-26T18:40:48.917Z,13.72
2022-12-26T18:42:50.435Z,13.72
2022-12-26T18:44:52.146Z,13.72
2022-12-26T18:46:53.671Z,13.69
2022-12-26T18:48:56.654Z,13.65
2022-12-26T18:50:58.256Z,13.63
2022-12-26T18:53:00.277Z,13.59
2022-12-26T18:55:01.800Z,13.56
2022-12-26T18:57:05.336Z,13.53
2022-12-26T18:59:10.211Z,13.52
2022-12-26T19:01:14.478Z,13.48
2022-12-26T19:03:16.039Z,13.45
2022-12-26T19:05:19.374Z,13.42
2022-12-26T19:07:21.033Z,13.38
2022-12-26T19:09:29.850Z,13.35
2022-12-26T19:11:31.499Z,13.34
2022-12-26T19:13:33.143Z,13.31
2022-12-26T19:15:36.061Z,13.27
2022-12-26T19:17:38.292Z,13.25
2022-12-26T19:19:39.812Z,13.22
2022-12-26T19:21:42.773Z,13.20
2022-12-26T19:23:47.551Z,13.15
2022-12-26T19:25:49.212Z,13.11
2022-12-26T19:27:51.241Z,13.08
2022-12-26T19:29:52.702Z,13.04
2022-12-26T19:31:56.395Z,13.01
2022-12-26T19:33:58.781Z,12.98
2022-12-26T19:36:00.397Z,12.96
2022-12-26T19:38:03.544Z,12.91
2022-12-26T19:40:06.155Z,12.89
2022-12-26T19:42:07.740Z,12.87
2022-12-26T19:44:10.132Z,12.86
2022-12-26T19:46:15.556Z,12.83
2022-12-26T19:48:17.136Z,12.78
2022-12-26T19:50:18.697Z,12.75
2022-12-26T19:52:20.319Z,12.71
2022-12-26T19:54:21.872Z,12.71
2022-12-26T19:56:26.426Z,12.69
2022-12-26T19:58:30.409Z,12.69
2022-12-26T20:00:32.095Z,12.66
2022-12-26T20:02:34.001Z,12.64
2022-12-26T20:04:35.693Z,12.64
2022-12-26T20:06:38.367Z,12.64
2022-12-26T20:08:40.414Z,12.65
2022-12-26T20:10:41.996Z,12.60
2022-12-26T20:12:43.579Z,12.58
2022-12-26T20:14:46.566Z,12.56
2022-12-26T20:17:08.810Z,12.53
2022-12-26T20:19:11.504Z,12.50
2022-12-26T20:21:14.061Z,12.49
2022-12-26T20:23:15.579Z,12.47
2022-12-26T20:25:17.148Z,12.46
2022-12-26T20:27:18.889Z,12.45
2022-12-26T20:29:20.723Z,12.45
2022-12-26T20:31:47.703Z,12.42
2022-12-26T20:33:50.790Z,12.40
2022-12-26T20:36:23.511Z,12.36
2022-12-26T20:38:27.454Z,12.34
2022-12-26T20:40:29.096Z,12.32
2022-12-26T20:42:30.705Z,12.30
2022-12-26T20:44:32.319Z,12.31
2022-12-26T20:46:35.562Z,12.31
2022-12-26T20:48:37.255Z,12.28
2022-12-26T20:50:39.575Z,12.27
2022-12-26T20:52:41.154Z,12.24
2022-12-26T20:54:42.616Z,12.23
2022-12-26T20:56:44.816Z,12.23
2022-12-26T20:58:46.511Z,12.23
2022-12-26T21:00:48.051Z,12.21
2022-12-26T21:02:49.693Z,12.19
2022-12-26T21:04:51.400Z,12.19
2022-12-26T21:06:52.941Z,12.18
2022-12-26T21:08:56.348Z,12.17
2022-12-26T21:11:05.132Z,12.13
2022-12-26T21:13:08.235Z,12.12
2022-12-26T21:15:09.954Z,12.12
2022-12-26T21:17:11.585Z,12.13
2022-12-26T21:19:15.609Z,12.08
2022-12-26T21:21:23.352Z,12.08
2022-12-26T21:23:24.927Z,12.08
2022-12-26T21:25:26.431Z,12.07
2022-12-26T21:27:28.164Z,12.10
2022-12-26T21:29:31.969Z,12.09
2022-12-26T21:31:34.929Z,12.08
2022-12-26T21:33:44.033Z,12.07
2022-12-26T21:35:50.691Z,12.08
2022-12-26T21:37:52.314Z,12.12
2022-12-26T21:39:53.745Z,12.14
2022-12-26T21:41:55.250Z,12.13
2022-12-26T21:43:56.839Z,12.13
2022-12-26T21:46:01.411Z,12.11
2022-12-26T21:48:03.220Z,12.10
2022-12-26T21:50:05.055Z,12.12
2022-12-26T21:52:07.584Z,12.13
2022-12-26T21:54:28.038Z,12.10
2022-12-26T21:56:29.590Z,12.10
2022-12-26T21:58:31.211Z,12.09
2022-12-26T22:00:34.931Z,12.09
2022-12-26T22:02:56.662Z,12.08
2022-12-26T22:04:58.711Z,12.05
2022-12-26T22:07:00.258Z,12.04
2022-12-26T22:09:02.171Z,12.04
2022-12-26T22:11:22.562Z,12.03
2022-12-26T22:13:25.599Z,12.02
2022-12-26T22:15:46.081Z,12.03
2022-12-26T22:17:47.686Z,12.01
2022-12-26T22:19:49.210Z,12.02
2022-12-26T22:21:52.060Z,12.02
2022-12-26T22:23:54.056Z,11.99
2022-12-26T22:25:55.946Z,11.99
2022-12-26T22:27:59.392Z,11.95
2022-12-26T22:30:00.918Z,11.93
2022-12-26T22:32:02.577Z,11.92
2022-12-26T22:34:12.327Z,11.89
2022-12-26T22:36:14.069Z,11.88
2022-12-26T22:38:15.807Z,11.85
2022-12-26T22:40:17.518Z,11.82
2022-12-26T22:42:19.023Z,11.79
2022-12-26T22:44:20.678Z,11.78
2022-12-26T22:46:22.711Z,11.74
2022-12-26T22:48:24.924Z,11.74
2022-12-26T22:50:26.403Z,11.74
2022-12-26T22:52:28.053Z,11.70
2022-12-26T22:54:29.611Z,11.69
2022-12-26T22:56:32.797Z,11.67
2022-12-26T22:58:34.414Z,11.65
2022-12-26T23:00:35.884Z,11.59
2022-12-26T23:02:37.857Z,11.58
2022-12-26T23:04:39.937Z,11.56
2022-12-26T23:06:42.074Z,11.54
2022-12-26T23:08:43.933Z,11.54
2022-12-26T23:10:46.143Z,11.52
2022-12-26T23:12:48.295Z,11.48
2022-12-26T23:14:49.951Z,11.45
2022-12-26T23:16:56.799Z,11.42
2022-12-26T23:19:20.267Z,11.40
2022-12-26T23:21:41.860Z,11.35
2022-12-26T23:23:43.656Z,11.33
2022-12-26T23:25:45.200Z,11.30
2022-12-26T23:28:05.120Z,11.27
2022-12-26T23:30:19.787Z,11.22
2022-12-26T23:32:21.219Z,11.19
2022-12-26T23:34:23.171Z,11.18
2022-12-26T23:36:24.671Z,11.15
2022-12-26T23:38:26.289Z,11.13
2022-12-26T23:40:27.881Z,11.11
2022-12-26T23:42:29.465Z,11.11
2022-12-26T23:44:31.429Z,11.07
2022-12-26T23:46:33.247Z,11.07
2022-12-26T23:48:34.910Z,11.05
2022-12-26T23:50:37.025Z,11.02
2022-12-26T23:52:38.949Z,11.02
2022-12-26T23:54:40.476Z,11.00
2022-12-26T23:56:41.926Z,10.99
2022-12-26T23:58:43.689Z,10.97
